Terminal Aerodrome Forecast
Issued by NWS Jackson, KY

Home | Current Version | Previous Version | Text Only | Print | Product List | Glossary On
Versions: 1 2 3 4 5 6 7 8 9 10 11 12 13 14 15 16 17 18 19 20 21 22 23 24 25 26 27 28 29 30 31
000
FTUS43 KJKL 010527
TAFJKL
TAF
KJKL 010527Z 0106/0206 VRB06KT P6SM SCT009 OVC015
     FM010900 VRB03KT 4SM BR VCSH BKN010 OVC050
     FM011500 VRB05KT 2SM -SHRA BR VCTS BKN007 BKN015CB
     FM012330 VRB06KT 6SM BR OVC010=

USA.gov is the U.S. government's official web portal to all federal, state and local government web resources and services.